createdAt,value
2022-10-28T00:01:04.637Z,12.40
2022-10-28T00:03:31.811Z,12.40
2022-10-28T00:06:13.053Z,12.30
2022-10-28T00:08:40.096Z,12.30
2022-10-28T00:11:18.606Z,12.40
2022-10-28T00:13:45.819Z,12.20
2022-10-28T00:16:14.784Z,12.30
2022-10-28T00:18:42.256Z,12.30
2022-10-28T00:21:12.015Z,12.30
2022-10-28T00:23:39.333Z,12.30
2022-10-28T00:26:17.153Z,12.30
2022-10-28T00:28:46.989Z,12.30
2022-10-28T00:31:16.859Z,12.30
2022-10-28T00:33:43.905Z,12.20
2022-10-28T00:36:12.178Z,12.20
2022-10-28T00:38:39.585Z,12.30
2022-10-28T00:41:06.586Z,12.30
2022-10-28T00:43:44.436Z,12.20
2022-10-28T00:46:19.930Z,12.10
2022-10-28T00:48:51.006Z,12.10
2022-10-28T00:51:19.533Z,11.90
2022-10-28T00:53:48.238Z,12.10
2022-10-28T00:56:16.841Z,12.10
2022-10-28T00:58:44.970Z,12.10
2022-10-28T01:01:11.680Z,12.10
2022-10-28T01:03:38.569Z,12.10
2022-10-28T01:06:06.192Z,12.20
2022-10-28T01:08:33.146Z,12.20
2022-10-28T01:11:03.074Z,12.20
2022-10-28T01:13:38.487Z,12.20
2022-10-28T01:16:25.824Z,12.10
2022-10-28T01:19:04.019Z,12.10
2022-10-28T01:22:02.168Z,12.00
2022-10-28T01:24:50.629Z,12.00
2022-10-28T01:27:23.275Z,12.00
2022-10-28T01:30:04.962Z,12.00
2022-10-28T01:32:40.512Z,12.00
2022-10-28T01:35:48.191Z,12.00
2022-10-28T01:38:36.071Z,11.90
2022-10-28T01:41:11.423Z,11.80
2022-10-28T01:43:44.966Z,11.80
2022-10-28T01:46:26.129Z,11.90
2022-10-28T01:49:00.332Z,11.90
2022-10-28T01:51:32.251Z,12.00
2022-10-28T01:54:02.221Z,12.00
2022-10-28T01:56:33.753Z,11.90
2022-10-28T01:59:01.995Z,11.90
2022-10-28T02:01:30.860Z,11.90
2022-10-28T02:03:58.137Z,11.90
2022-10-28T02:06:30.401Z,11.90
2022-10-28T02:08:57.191Z,11.90
2022-10-28T02:11:42.700Z,11.80
2022-10-28T02:14:27.562Z,11.80
2022-10-28T02:17:19.950Z,11.70
2022-10-28T02:19:53.953Z,11.80
2022-10-28T02:22:32.612Z,11.70
2022-10-28T02:25:13.036Z,11.70
2022-10-28T02:28:06.930Z,11.90
2022-10-28T02:30:49.607Z,11.90
2022-10-28T02:33:23.990Z,11.90
2022-10-28T02:36:00.630Z,11.90
2022-10-28T02:38:38.206Z,11.90
2022-10-28T02:41:29.410Z,11.90
2022-10-28T02:44:00.048Z,11.90
2022-10-28T02:46:30.936Z,11.90
2022-10-28T02:49:02.753Z,12.00
2022-10-28T02:51:35.715Z,11.90
2022-10-28T02:54:10.949Z,12.00
2022-10-28T02:57:03.660Z,11.90
2022-10-28T02:59:30.405Z,11.80
2022-10-28T03:01:57.219Z,11.80
2022-10-28T03:04:24.062Z,11.80
2022-10-28T03:06:50.811Z,11.70
2022-10-28T03:09:17.471Z,11.70
2022-10-28T03:11:44.297Z,11.80
2022-10-28T03:14:13.275Z,11.80
2022-10-28T03:16:42.147Z,11.90
2022-10-28T03:21:35.564Z,11.90
2022-10-28T03:24:02.296Z,11.90
2022-10-28T03:26:28.956Z,11.80
2022-10-28T03:28:55.830Z,11.90
2022-10-28T03:31:22.529Z,11.90
2022-10-28T03:33:49.199Z,11.90
2022-10-28T03:36:15.881Z,11.70
2022-10-28T03:38:42.575Z,11.80
2022-10-28T03:41:09.386Z,11.90
2022-10-28T03:43:36.127Z,12.00
2022-10-28T03:46:02.889Z,12.00
2022-10-28T03:48:29.638Z,12.00
2022-10-28T03:50:57.020Z,12.10
2022-10-28T03:53:27.570Z,12.00
2022-10-28T03:55:57.293Z,12.00
2022-10-28T03:58:24.799Z,12.00
2022-10-28T04:00:53.231Z,12.00
2022-10-28T04:03:21.770Z,12.00
2022-10-28T04:05:49.026Z,12.00
2022-10-28T04:08:16.773Z,12.00
2022-10-28T04:10:47.347Z,12.00
2022-10-28T04:13:15.752Z,12.00
2022-10-28T04:15:42.519Z,12.00
2022-10-28T04:18:09.509Z,12.00
2022-10-28T04:20:36.513Z,12.00
2022-10-28T04:23:03.740Z,12.00
2022-10-28T04:25:30.828Z,12.00
2022-10-28T04:27:57.637Z,12.10
2022-10-28T04:30:24.913Z,12.00
2022-10-28T04:32:51.564Z,12.00
2022-10-28T04:35:18.336Z,12.00
2022-10-28T04:37:45.684Z,12.00
2022-10-28T04:40:12.675Z,12.10
2022-10-28T04:42:39.417Z,12.10
2022-10-28T04:45:06.823Z,12.10
2022-10-28T04:47:33.662Z,12.00
2022-10-28T04:50:00.540Z,12.00
2022-10-28T04:52:27.204Z,12.10
2022-10-28T04:54:53.865Z,12.10
2022-10-28T04:57:20.529Z,12.20
2022-10-28T04:59:47.346Z,12.20
2022-10-28T05:02:14.096Z,12.20
2022-10-28T05:04:40.900Z,12.20
2022-10-28T05:07:07.642Z,12.10
2022-10-28T05:09:34.388Z,12.10
2022-10-28T05:12:01.190Z,12.10
2022-10-28T05:14:27.939Z,12.20
2022-10-28T05:16:54.640Z,12.20
2022-10-28T05:19:21.307Z,12.80
2022-10-28T05:21:47.966Z,13.10
2022-10-28T05:24:14.698Z,13.30
2022-10-28T05:26:41.364Z,13.00
2022-10-28T05:29:08.082Z,13.00
2022-10-28T05:31:34.764Z,12.90
2022-10-28T05:34:01.473Z,12.80
2022-10-28T05:36:28.126Z,12.60
2022-10-28T05:38:54.772Z,12.40
2022-10-28T05:41:23.355Z,12.30
2022-10-28T05:43:51.421Z,12.30
2022-10-28T05:46:18.201Z,12.30
2022-10-28T05:48:44.932Z,12.30
2022-10-28T05:51:11.646Z,12.20
2022-10-28T05:53:38.375Z,12.20
2022-10-28T05:56:05.293Z,12.20
2022-10-28T05:58:32.119Z,12.20
2022-10-28T06:00:59.221Z,12.20
2022-10-28T06:03:30.105Z,12.20
2022-10-28T06:05:58.645Z,12.20
2022-10-28T06:08:25.374Z,12.20
2022-10-28T06:10:52.684Z,12.20
2022-10-28T06:13:19.889Z,12.20
2022-10-28T06:15:50.839Z,12.20
2022-10-28T06:18:18.979Z,12.20
2022-10-28T06:21:11.893Z,12.30
2022-10-28T06:23:38.658Z,12.20
2022-10-28T06:26:05.349Z,12.20
2022-10-28T06:28:32.124Z,12.20
2022-10-28T06:31:03.620Z,12.10
2022-10-28T06:33:34.068Z,12.20
2022-10-28T06:36:01.207Z,12.20
2022-10-28T06:38:28.587Z,12.20
2022-10-28T06:40:58.568Z,12.20
2022-10-28T06:43:25.457Z,12.20
2022-10-28T06:45:55.365Z,12.30
2022-10-28T06:48:24.285Z,12.30
2022-10-28T06:50:51.174Z,12.40
2022-10-28T06:53:17.917Z,12.40
2022-10-28T06:55:48.833Z,12.40
2022-10-28T06:58:15.683Z,12.40
2022-10-28T07:00:42.353Z,12.50
2022-10-28T07:03:10.725Z,12.40
2022-10-28T07:05:37.841Z,12.40
2022-10-28T07:08:05.147Z,12.50
2022-10-28T07:10:31.853Z,12.40
2022-10-28T07:12:58.585Z,12.40
2022-10-28T07:15:25.365Z,12.50
2022-10-28T07:17:56.775Z,12.50
2022-10-28T07:20:24.882Z,12.50
2022-10-28T07:22:58.827Z,12.50
2022-10-28T07:25:26.706Z,12.40
2022-10-28T07:27:53.789Z,12.40
2022-10-28T07:30:20.720Z,12.40
2022-10-28T07:32:47.405Z,12.40
2022-10-28T07:35:14.251Z,12.50
2022-10-28T07:37:40.941Z,12.60
2022-10-28T07:40:08.054Z,12.60
2022-10-28T07:42:35.403Z,12.60
2022-10-28T07:45:02.861Z,12.80
2022-10-28T07:47:29.586Z,12.80
2022-10-28T07:49:56.471Z,12.90
2022-10-28T07:52:23.370Z,12.90
2022-10-28T07:54:51.968Z,13.00
2022-10-28T07:57:18.995Z,13.00
2022-10-28T07:59:45.765Z,13.00
2022-10-28T08:02:21.474Z,13.00
2022-10-28T08:04:48.719Z,13.10
2022-10-28T08:07:16.250Z,13.20
2022-10-28T08:09:42.941Z,13.10
2022-10-28T08:12:12.744Z,13.20
2022-10-28T08:14:39.549Z,13.30
2022-10-28T08:17:06.719Z,13.40
2022-10-28T08:19:33.657Z,13.50
2022-10-28T08:22:00.445Z,13.60
2022-10-28T08:24:27.113Z,13.70
2022-10-28T08:26:54.321Z,13.90
2022-10-28T08:29:21.006Z,14.00
2022-10-28T08:31:47.685Z,13.90
2022-10-28T08:34:14.506Z,13.80
2022-10-28T08:36:41.379Z,13.90
2022-10-28T08:39:08.185Z,13.90
2022-10-28T08:41:46.469Z,13.90
2022-10-28T08:44:22.223Z,14.00
2022-10-28T08:46:57.461Z,14.00
2022-10-28T08:49:24.808Z,13.90
2022-10-28T08:51:59.437Z,13.90
2022-10-28T08:54:50.477Z,14.00
2022-10-28T08:57:42.121Z,14.00
2022-10-28T09:00:21.933Z,14.00
2022-10-28T09:03:16.776Z,14.10
2022-10-28T09:05:50.553Z,14.10
2022-10-28T09:08:25.285Z,14.10
2022-10-28T09:11:10.145Z,14.10
2022-10-28T09:14:16.064Z,14.10
2022-10-28T09:17:07.129Z,14.10
2022-10-28T09:19:42.729Z,14.20
2022-10-28T09:22:20.918Z,14.30
2022-10-28T09:24:54.650Z,14.30
2022-10-28T09:27:21.448Z,14.50
2022-10-28T09:30:12.837Z,14.50
2022-10-28T09:33:01.337Z,14.60
2022-10-28T09:35:33.892Z,14.60
2022-10-28T09:38:14.724Z,14.70
2022-10-28T09:40:46.000Z,14.80
2022-10-28T09:43:35.300Z,14.80
2022-10-28T09:46:12.710Z,14.80
2022-10-28T09:48:46.552Z,15.00
2022-10-28T09:51:30.798Z,15.20
2022-10-28T09:53:59.605Z,15.30
2022-10-28T09:56:28.067Z,15.30
2022-10-28T09:58:58.435Z,15.30
2022-10-28T10:01:25.507Z,15.40
2022-10-28T10:03:52.550Z,15.50
2022-10-28T10:06:27.416Z,15.50
2022-10-28T10:08:57.345Z,15.50
2022-10-28T10:11:45.528Z,15.50
2022-10-28T10:14:16.985Z,15.60
2022-10-28T10:16:51.014Z,15.70
2022-10-28T10:19:17.770Z,15.80
2022-10-28T10:21:47.267Z,15.90
2022-10-28T10:24:34.670Z,15.90
2022-10-28T10:27:17.450Z,16.00
2022-10-28T10:29:47.264Z,16.10
2022-10-28T10:32:18.995Z,16.00
2022-10-28T10:34:58.336Z,16.00
2022-10-28T10:37:26.560Z,16.00
2022-10-28T10:40:04.039Z,16.00
2022-10-28T10:42:30.920Z,16.00
2022-10-28T10:45:10.851Z,15.90
2022-10-28T10:47:37.595Z,16.00
2022-10-28T10:50:23.640Z,16.00
2022-10-28T10:52:53.866Z,16.00
2022-10-28T10:55:38.724Z,16.10
2022-10-28T10:58:14.380Z,16.10
2022-10-28T11:00:47.861Z,16.20
2022-10-28T11:03:24.594Z,16.20
2022-10-28T11:06:18.247Z,16.20
2022-10-28T11:08:44.245Z,16.30
2022-10-28T11:11:22.579Z,16.30
2022-10-28T11:14:03.607Z,16.50
2022-10-28T11:16:30.347Z,16.80
2022-10-28T11:18:57.071Z,17.10
2022-10-28T11:21:43.016Z,17.30
2022-10-28T11:24:31.449Z,17.40
2022-10-28T11:26:58.081Z,17.50
2022-10-28T11:29:25.301Z,17.70
2022-10-28T11:31:57.968Z,17.90
2022-10-28T11:34:46.565Z,17.80
2022-10-28T11:37:34.299Z,17.80
2022-10-28T11:40:22.708Z,17.80
2022-10-28T11:43:04.499Z,17.80
2022-10-28T11:46:29.501Z,17.90
2022-10-28T11:48:59.185Z,18.10
2022-10-28T11:52:13.521Z,18.00
2022-10-28T11:55:19.125Z,18.00
2022-10-28T11:58:06.769Z,18.10
2022-10-28T12:00:45.553Z,18.00
2022-10-28T12:04:01.233Z,18.10
2022-10-28T12:06:54.283Z,18.10
2022-10-28T12:09:53.248Z,18.20
2022-10-28T12:12:48.643Z,18.20
2022-10-28T12:16:10.957Z,18.20
2022-10-28T12:18:56.380Z,18.30
2022-10-28T12:21:36.805Z,18.30
2022-10-28T12:24:09.483Z,18.40
2022-10-28T12:26:41.573Z,18.40
2022-10-28T12:29:37.335Z,18.40
2022-10-28T12:32:11.813Z,18.50
2022-10-28T12:34:45.513Z,18.70
2022-10-28T12:37:21.585Z,19.00
2022-10-28T12:40:04.773Z,19.20
2022-10-28T12:42:40.050Z,19.30
2022-10-28T12:45:11.503Z,19.20
2022-10-28T12:48:13.965Z,19.30
2022-10-28T12:50:56.586Z,19.50
2022-10-28T12:54:15.082Z,19.60
2022-10-28T12:57:04.584Z,19.90
2022-10-28T12:59:39.000Z,20.00
2022-10-28T13:02:21.180Z,20.20
2022-10-28T13:04:48.110Z,20.50
2022-10-28T13:07:38.370Z,20.50
2022-10-28T13:10:31.515Z,20.50
2022-10-28T13:13:12.582Z,20.80
2022-10-28T13:15:40.383Z,21.00
2022-10-28T13:18:31.237Z,21.20
2022-10-28T13:21:29.211Z,21.20
2022-10-28T13:24:10.932Z,21.30
2022-10-28T13:26:43.410Z,21.30
2022-10-28T13:29:32.971Z,21.30
2022-10-28T13:32:00.021Z,21.40
2022-10-28T13:34:44.821Z,21.30
2022-10-28T13:37:20.899Z,21.30
2022-10-28T13:39:47.740Z,21.30
2022-10-28T13:42:23.418Z,21.30
2022-10-28T13:44:57.546Z,21.30
2022-10-28T13:47:28.586Z,21.20
2022-10-28T13:50:07.742Z,21.10
2022-10-28T13:52:43.001Z,21.10
2022-10-28T13:55:42.413Z,21.10
2022-10-28T13:58:22.723Z,21.10
2022-10-28T14:00:52.220Z,21.00
2022-10-28T14:03:24.356Z,21.00
2022-10-28T14:05:53.987Z,20.90
2022-10-28T14:08:41.043Z,20.80
2022-10-28T14:11:10.537Z,20.80
2022-10-28T14:13:47.090Z,20.70
2022-10-28T14:16:22.170Z,20.70
2022-10-28T14:19:20.093Z,20.70
2022-10-28T14:22:00.744Z,20.60
2022-10-28T14:24:38.344Z,20.50
2022-10-28T14:27:15.330Z,20.40
2022-10-28T14:30:04.013Z,20.50
2022-10-28T14:32:33.829Z,20.40
2022-10-28T14:35:15.881Z,20.40
2022-10-28T14:38:07.587Z,20.40
2022-10-28T14:40:47.817Z,20.40
2022-10-28T14:43:34.115Z,20.30
2022-10-28T14:46:42.950Z,20.20
2022-10-28T14:49:25.707Z,20.10
2022-10-28T14:51:53.312Z,20.10
2022-10-28T14:54:39.838Z,20.00
2022-10-28T14:57:08.112Z,20.00
2022-10-28T14:59:43.027Z,19.90
2022-10-28T15:02:25.195Z,19.90
2022-10-28T15:05:13.936Z,19.70
2022-10-28T15:07:41.925Z,19.70
2022-10-28T15:10:29.371Z,19.70
2022-10-28T15:12:58.101Z,19.70
2022-10-28T15:15:28.246Z,19.60
2022-10-28T15:17:55.068Z,19.60
2022-10-28T15:20:27.423Z,19.60
2022-10-28T15:23:11.047Z,19.60
2022-10-28T15:25:37.816Z,19.60
2022-10-28T15:28:04.649Z,19.50
2022-10-28T15:30:31.451Z,19.40
2022-10-28T15:33:19.240Z,19.40
2022-10-28T15:35:47.503Z,19.30
2022-10-28T15:38:25.137Z,19.20
2022-10-28T15:40:51.971Z,19.20
2022-10-28T15:43:27.117Z,19.10
2022-10-28T15:45:54.240Z,19.10
2022-10-28T15:48:24.769Z,19.00
2022-10-28T15:51:15.216Z,18.90
2022-10-28T15:53:43.380Z,18.90
2022-10-28T15:56:24.921Z,18.80
2022-10-28T15:59:21.798Z,18.70
2022-10-28T16:01:48.596Z,18.70
2022-10-28T16:04:18.229Z,18.60
2022-10-28T16:06:46.146Z,18.40
2022-10-28T16:09:20.441Z,18.40
2022-10-28T16:11:53.444Z,18.30
2022-10-28T16:14:39.855Z,18.20
2022-10-28T16:17:13.808Z,18.10
2022-10-28T16:19:46.006Z,18.00
2022-10-28T16:22:14.273Z,18.10
2022-10-28T16:24:41.852Z,18.00
2022-10-28T16:27:18.563Z,18.10
2022-10-28T16:29:45.607Z,18.10
2022-10-28T16:32:13.871Z,18.00
2022-10-28T16:34:40.816Z,17.90
2022-10-28T16:37:34.329Z,17.80
2022-10-28T16:40:01.022Z,17.80
2022-10-28T16:42:27.808Z,17.70
2022-10-28T16:44:54.599Z,17.70
2022-10-28T16:47:22.982Z,17.60
2022-10-28T16:49:54.050Z,17.60
2022-10-28T16:52:29.570Z,17.60
2022-10-28T16:54:57.267Z,17.50
2022-10-28T16:59:51.376Z,17.50
2022-10-28T17:02:38.541Z,17.50
2022-10-28T17:05:07.339Z,17.40
2022-10-28T17:07:34.034Z,17.30
2022-10-28T17:10:00.697Z,17.30
2022-10-28T17:12:27.960Z,17.40
2022-10-28T17:14:55.259Z,17.20
2022-10-28T17:17:22.046Z,17.20
2022-10-28T17:19:48.956Z,17.10
2022-10-28T17:22:15.841Z,17.10
2022-10-28T17:24:42.586Z,17.00
2022-10-28T17:27:09.342Z,17.00
2022-10-28T17:29:36.252Z,17.00
2022-10-28T17:32:03.154Z,17.00
2022-10-28T17:34:29.831Z,16.90
2022-10-28T17:36:56.819Z,16.80
2022-10-28T17:39:26.403Z,16.80
2022-10-28T17:41:53.574Z,16.80
2022-10-28T17:44:20.590Z,16.70
2022-10-28T17:46:51.452Z,16.70
2022-10-28T17:49:18.755Z,16.80
2022-10-28T17:51:45.448Z,16.70
2022-10-28T17:54:12.358Z,16.60
2022-10-28T17:56:41.827Z,16.60
2022-10-28T17:59:08.766Z,16.60
2022-10-28T18:01:35.575Z,16.50
2022-10-28T18:04:06.424Z,16.40
2022-10-28T18:06:33.243Z,16.30
2022-10-28T18:09:00.153Z,16.30
2022-10-28T18:11:27.527Z,16.30
2022-10-28T18:13:56.317Z,16.30
2022-10-28T18:16:25.350Z,16.20
2022-10-28T18:18:53.713Z,16.20
2022-10-28T18:21:21.394Z,16.10
2022-10-28T18:23:52.868Z,16.10
2022-10-28T18:26:20.188Z,16.10
2022-10-28T18:28:47.153Z,16.10
2022-10-28T18:31:19.232Z,16.00
2022-10-28T18:33:46.952Z,16.10
2022-10-28T18:36:22.801Z,16.00
2022-10-28T18:38:50.726Z,15.90
2022-10-28T18:41:19.921Z,15.80
2022-10-28T18:43:46.855Z,15.80
2022-10-28T18:46:14.988Z,15.80
2022-10-28T18:48:41.802Z,15.90
2022-10-28T18:51:11.339Z,15.80
2022-10-28T18:53:40.324Z,15.70
2022-10-28T18:56:09.826Z,15.60
2022-10-28T18:58:36.545Z,15.60
2022-10-28T19:01:12.478Z,15.60
2022-10-28T19:03:39.706Z,15.50
2022-10-28T19:06:09.409Z,15.50
2022-10-28T19:08:36.377Z,15.40
2022-10-28T19:11:03.903Z,15.40
2022-10-28T19:13:35.489Z,15.40
2022-10-28T19:16:02.412Z,15.30
2022-10-28T19:18:29.527Z,15.20
2022-10-28T19:21:08.324Z,15.10
2022-10-28T19:23:35.138Z,15.20
2022-10-28T19:26:03.863Z,15.10
2022-10-28T19:28:35.536Z,15.10
2022-10-28T19:31:04.033Z,15.00
2022-10-28T19:33:31.376Z,15.00
2022-10-28T19:36:03.613Z,15.00
2022-10-28T19:38:35.258Z,15.00
2022-10-28T19:41:13.626Z,14.90
2022-10-28T19:43:40.932Z,15.00
2022-10-28T19:46:10.960Z,15.00
2022-10-28T19:48:39.322Z,14.80
2022-10-28T19:51:06.898Z,14.80
2022-10-28T19:53:33.820Z,14.70
2022-10-28T19:56:02.862Z,14.70
2022-10-28T19:58:30.943Z,14.70
2022-10-28T20:01:03.471Z,14.60
2022-10-28T20:03:34.299Z,14.60
2022-10-28T20:06:07.839Z,14.60
2022-10-28T20:08:46.383Z,14.60
2022-10-28T20:11:15.215Z,14.50
2022-10-28T20:13:42.331Z,14.50
2022-10-28T20:16:14.292Z,14.50
2022-10-28T20:18:41.213Z,14.50
2022-10-28T20:21:16.225Z,14.50
2022-10-28T20:23:44.499Z,14.50
2022-10-28T20:26:12.962Z,14.60
2022-10-28T20:28:40.185Z,14.50
2022-10-28T20:31:08.552Z,14.50
2022-10-28T20:33:37.311Z,14.50
2022-10-28T20:36:04.986Z,14.40
2022-10-28T20:38:31.812Z,14.30
2022-10-28T20:41:00.458Z,14.20
2022-10-28T20:43:29.332Z,14.20
2022-10-28T20:46:01.670Z,14.20
2022-10-28T20:48:30.157Z,14.20
2022-10-28T20:51:01.670Z,14.20
2022-10-28T20:53:32.988Z,14.20
2022-10-28T20:56:00.337Z,14.10
2022-10-28T20:58:33.048Z,14.10
2022-10-28T21:01:05.742Z,14.10
2022-10-28T21:03:32.832Z,14.00
2022-10-28T21:06:01.698Z,14.10
2022-10-28T21:08:28.573Z,14.00
2022-10-28T21:10:55.579Z,14.00
2022-10-28T21:13:22.244Z,14.00
2022-10-28T21:15:53.171Z,14.10
2022-10-28T21:18:23.589Z,13.90
2022-10-28T21:20:58.995Z,13.90
2022-10-28T21:23:27.057Z,13.80
2022-10-28T21:26:05.110Z,13.70
2022-10-28T21:28:33.172Z,13.80
2022-10-28T21:31:13.932Z,13.80
2022-10-28T21:33:42.141Z,13.80
2022-10-28T21:36:17.913Z,13.90
2022-10-28T21:38:45.012Z,13.70
2022-10-28T21:41:19.457Z,13.70
2022-10-28T21:43:48.743Z,13.70
2022-10-28T21:46:19.246Z,13.70
2022-10-28T21:48:46.717Z,13.60
2022-10-28T21:51:15.561Z,13.60
2022-10-28T21:53:43.798Z,13.60
2022-10-28T21:56:18.231Z,13.60
2022-10-28T21:58:46.710Z,13.50
2022-10-28T22:01:22.186Z,13.40
2022-10-28T22:03:49.989Z,13.40
2022-10-28T22:06:17.058Z,13.40
2022-10-28T22:08:43.845Z,13.50
2022-10-28T22:11:19.299Z,13.40
2022-10-28T22:13:47.012Z,13.40
2022-10-28T22:16:15.799Z,13.50
2022-10-28T22:18:43.713Z,13.40
2022-10-28T22:21:13.360Z,13.40
2022-10-28T22:23:40.632Z,13.40
2022-10-28T22:26:10.900Z,13.50
2022-10-28T22:28:38.075Z,13.30
2022-10-28T22:31:07.950Z,13.30
2022-10-28T22:33:35.171Z,13.30
2022-10-28T22:36:04.359Z,13.30
2022-10-28T22:38:31.234Z,13.30
2022-10-28T22:41:04.969Z,13.30
2022-10-28T22:43:31.800Z,13.30
2022-10-28T22:45:59.465Z,13.20
2022-10-28T22:48:26.533Z,13.20
2022-10-28T22:50:53.606Z,13.20
2022-10-28T22:53:20.660Z,13.10
2022-10-28T22:55:47.695Z,13.10
2022-10-28T22:58:16.048Z,13.00
2022-10-28T23:00:43.453Z,13.10
2022-10-28T23:03:10.404Z,13.10
2022-10-28T23:05:37.249Z,13.00
2022-10-28T23:08:04.315Z,12.90
2022-10-28T23:10:31.132Z,12.90
2022-10-28T23:12:58.748Z,12.90
2022-10-28T23:15:25.944Z,12.90
2022-10-28T23:17:53.293Z,12.90
2022-10-28T23:20:21.832Z,12.80
2022-10-28T23:22:48.811Z,12.90
2022-10-28T23:25:16.091Z,12.90
2022-10-28T23:27:43.998Z,12.70
2022-10-28T23:30:12.839Z,12.70
2022-10-28T23:32:40.061Z,12.60
2022-10-28T23:35:07.635Z,12.60
2022-10-28T23:37:34.378Z,12.70
2022-10-28T23:40:01.253Z,12.70
2022-10-28T23:42:28.424Z,12.70
2022-10-28T23:44:55.105Z,12.60
2022-10-28T23:47:21.809Z,12.60
2022-10-28T23:49:48.543Z,12.70
2022-10-28T23:52:15.343Z,12.60
2022-10-28T23:54:42.012Z,12.60
2022-10-28T23:57:08.747Z,12.60
2022-10-28T23:59:35.408Z,12.60
